Terminal Aerodrome Forecast
Issued by NWS Grand Forks, ND

Home | Current Version | Previous Version | Graphics & Text | Print | Product List | Glossary On
Versions: 1 2 3 4 5 6 7 8 9 10 11 12 13 14 15 16 17
000
FTUS43 KFGF 201723 AAD
TAFGFK
TAF AMD
KGFK 201723Z 2017/2118 19007KT P6SM BKN080
      TEMPO 2018/2019 OVC010
     FM210300 16007KT P6SM VCTS BKN080CB
     FM210500 VRB06KT P6SM SCT250
     FM211200 32006KT P6SM SCT250=

USA.gov is the U.S. government's official web portal to all federal, state and local government web resources and services.